Time;durP1;ratioP1;P1;durP2;ratioP2;P2;SDS_P1;SDS_P2;PMS_P1;PMS_P2;Temp;Humidity;BMP_temperature;BMP_pressure;BME280_temperature;BME280_humidity;BME280_pressure;Samples;Min_cycle;Max_cycle;Signal;HPM_P1;HPM_P2
2021/12/31 00:01:46;;;;;;;30.72;22.00;;;;;;;5.89;45.42;99667.44;1752159;80;21077;-67
2021/12/31 00:04:12;;;;;;;30.65;22.58;;;;;;;5.91;45.43;99676.53;1764240;79;21080;-68
2021/12/31 00:06:42;;;;;;;33.78;22.95;;;;;;;5.90;45.43;99675.67;1765945;79;21125;-67
2021/12/31 00:09:07;;;;;;;29.77;22.02;;;;;;;5.90;45.44;99682.27;1752772;80;21079;-67
2021/12/31 00:11:35;;;;;;;32.58;23.12;;;;;;;5.91;45.44;99675.20;1761370;80;21035;-67
2021/12/31 00:14:02;;;;;;;28.00;21.05;;;;;;;5.90;45.44;99669.08;1750128;79;21054;-67
2021/12/31 00:16:29;;;;;;;31.50;22.60;;;;;;;5.91;45.46;99685.75;1765021;79;21058;-67
2021/12/31 00:18:55;;;;;;;29.57;21.35;;;;;;;5.91;45.46;99686.58;1758101;79;21026;-66
2021/12/31 00:21:21;;;;;;;30.85;23.00;;;;;;;5.91;45.49;99672.57;1774040;79;21041;-66
2021/12/31 00:23:48;;;;;;;28.90;20.55;;;;;;;5.91;45.48;99666.80;1758081;80;20979;-67
2021/12/31 00:26:14;;;;;;;30.10;22.37;;;;;;;5.91;45.48;99669.44;1779358;79;21474;-67
2021/12/31 00:28:41;;;;;;;31.60;23.67;;;;;;;5.92;45.50;99659.72;1780147;80;21038;-67
2021/12/31 00:31:07;;;;;;;28.57;21.35;;;;;;;5.92;45.49;99662.36;1763499;80;21577;-67
2021/12/31 00:33:34;;;;;;;29.45;21.60;;;;;;;5.93;45.48;99661.40;1749704;80;21057;-67
2021/12/31 00:36:00;;;;;;;30.65;22.67;;;;;;;5.93;45.49;99654.80;1749476;80;21213;-68
2021/12/31 00:38:27;;;;;;;29.95;21.73;;;;;;;5.93;45.50;99643.41;1772319;79;21084;-66
2021/12/31 00:40:53;;;;;;;28.77;21.82;;;;;;;5.93;45.51;99646.89;1769918;80;21553;-66
2021/12/31 00:43:21;;;;;;;28.85;22.02;;;;;;;5.93;45.51;99640.77;1759171;80;21038;-67
2021/12/31 00:45:48;;;;;;;28.10;21.42;;;;;;;5.93;45.52;99645.58;1771079;79;21054;-66
2021/12/31 00:48:14;;;;;;;30.23;22.22;;;;;;;5.93;45.51;99638.98;1759186;80;21497;-67
2021/12/31 00:50:42;;;;;;;29.15;21.85;;;;;;;5.94;45.53;99647.23;1754682;80;21065;-66
2021/12/31 00:53:09;;;;;;;28.62;21.50;;;;;;;5.94;45.53;99631.41;1761120;80;21048;-66
2021/12/31 00:55:37;;;;;;;28.30;21.60;;;;;;;5.94;45.53;99622.17;1761964;79;21034;-67
2021/12/31 00:58:06;;;;;;;27.32;21.12;;;;;;;5.94;45.54;99612.95;1764177;79;21085;-67
2021/12/31 01:00:33;;;;;;;28.57;21.25;;;;;;;5.94;45.54;99618.22;1760049;79;21150;-66
2021/12/31 01:03:01;;;;;;;27.13;20.85;;;;;;;5.94;45.55;99610.31;1767470;80;21030;-66
2021/12/31 01:05:27;;;;;;;26.93;21.00;;;;;;;5.94;45.55;99611.63;1763789;79;21030;-66
2021/12/31 01:07:53;;;;;;;29.82;21.40;;;;;;;5.95;45.55;99619.05;1757935;79;21509;-67
2021/12/31 01:10:25;;;;;;;27.42;20.85;;;;;;;5.94;45.55;99621.35;1752455;79;21042;-67
2021/12/31 01:12:52;;;;;;;28.92;20.75;;;;;;;5.95;45.56;99613.77;1758054;79;21046;-67
2021/12/31 01:15:34;;;;;;;27.60;20.80;;;;;;;5.95;45.55;99621.68;1764933;80;20970;-67
2021/12/31 01:18:15;;;;;;;26.65;20.15;;;;;;;5.95;45.57;99618.61;1754757;79;21572;-68
2021/12/31 01:20:20;;;;;;;29.52;21.30;;;;;;;5.94;45.57;99612.13;1744626;80;21515;-67
2021/12/31 01:22:47;;;;;;;27.13;20.75;;;;;;;5.94;45.59;99608.17;1762745;80;22492;-68
2021/12/31 01:25:14;;;;;;;27.58;21.62;;;;;;;5.94;45.59;99614.76;1765234;80;21141;-66
2021/12/31 01:27:42;;;;;;;27.52;20.43;;;;;;;5.94;45.58;99597.63;1764334;79;21030;-66
2021/12/31 01:30:13;;;;;;;27.40;20.20;;;;;;;5.95;45.61;99597.95;1767142;80;21069;-66
2021/12/31 01:32:43;;;;;;;26.93;20.97;;;;;;;5.95;45.61;99597.52;1771056;80;21021;-67
2021/12/31 01:35:10;;;;;;;26.97;20.85;;;;;;;5.96;45.62;99595.70;1762242;80;21588;-67
2021/12/31 01:37:38;;;;;;;27.02;20.65;;;;;;;5.96;45.61;99593.89;1763494;79;21018;-67
2021/12/31 01:40:06;;;;;;;25.23;19.27;;;;;;;5.95;45.62;99590.92;1766411;79;21774;-66
2021/12/31 01:42:33;;;;;;;26.33;20.55;;;;;;;5.96;45.61;99587.80;1758221;80;21505;-66
2021/12/31 01:45:13;;;;;;;27.67;20.50;;;;;;;5.96;45.63;99577.25;1768961;80;21082;-66
2021/12/31 01:50:20;;;;;;;27.87;19.65;;;;;;;5.95;45.64;99569.83;1759050;79;22360;-66
2021/12/31 01:52:46;;;;;;;25.15;19.48;;;;;;;5.95;45.63;99563.23;1764774;80;21077;-65
2021/12/31 01:55:13;;;;;;;27.62;20.92;;;;;;;5.95;45.67;99560.60;1756196;80;21644;-67
2021/12/31 01:57:41;;;;;;;26.80;19.85;;;;;;;5.95;45.67;99563.67;1749603;80;20994;-66
2021/12/31 02:00:11;;;;;;;27.67;20.92;;;;;;;5.95;45.67;99561.92;1755118;79;21084;-67
2021/12/31 02:02:44;;;;;;;28.07;20.47;;;;;;;5.95;45.70;99561.92;1757987;79;21140;-66
2021/12/31 02:05:11;;;;;;;27.02;20.85;;;;;;;5.96;45.71;99558.79;1748091;81;21041;-66
2021/12/31 02:07:38;;;;;;;28.87;21.42;;;;;;;5.96;45.69;99561.42;1750750;80;21608;-66
2021/12/31 02:10:06;;;;;;;25.30;19.75;;;;;;;5.96;45.70;99560.11;1751166;79;21050;-65
2021/12/31 02:12:34;;;;;;;27.85;21.02;;;;;;;5.95;45.72;99552.69;1749874;80;21010;-66
2021/12/31 02:15:04;;;;;;;25.60;19.25;;;;;;;5.95;45.72;99551.80;1758928;80;21510;-68
2021/12/31 02:17:31;;;;;;;24.67;19.05;;;;;;;5.96;45.71;99546.42;1770776;80;21049;-66
2021/12/31 02:20:05;;;;;;;26.90;20.12;;;;;;;5.95;45.73;99540.83;1757717;79;20998;-65
2021/12/31 02:22:38;;;;;;;;;;;;;;;5.95;45.71;99538.19;1752127;80;21069;-67
2021/12/31 02:25:06;;;;;;;27.13;19.35;;;;;;;5.95;45.74;99538.63;1773563;80;20170;-66
2021/12/31 02:27:39;;;;;;;27.07;19.77;;;;;;;5.95;45.78;99547.42;1757958;80;22084;-67
2021/12/31 02:30:10;;;;;;;25.32;19.52;;;;;;;5.94;45.78;99544.39;1752997;79;21030;-67
2021/12/31 02:32:38;;;;;;;24.92;19.62;;;;;;;5.95;45.80;99537.30;1770153;80;21504;-67
2021/12/31 02:35:07;;;;;;;25.82;19.73;;;;;;;5.95;45.78;99547.42;1694960;82;21089;-66
2021/12/31 02:37:34;;;;;;;24.27;19.12;;;;;;;5.96;45.78;99540.33;1693572;83;21137;-68
2021/12/31 02:40:04;;;;;;;24.17;18.33;;;;;;;5.96;45.80;99541.65;1701716;83;22343;-66
2021/12/31 02:42:32;;;;;;;28.73;20.85;;;;;;;5.96;45.80;99546.92;1687955;83;21037;-67
2021/12/31 02:44:59;;;;;;;28.05;20.27;;;;;;;5.97;45.83;99537.55;1685206;83;21577;-67
2021/12/31 02:47:25;;;;;;;24.80;19.23;;;;;;;5.98;45.80;99539.20;1708909;83;21074;-66
2021/12/31 02:49:53;;;;;;;24.27;19.65;;;;;;;5.97;45.81;99541.98;1708774;83;21068;-66
2021/12/31 02:52:20;;;;;;;24.25;18.27;;;;;;;5.99;45.81;99541.34;1721286;82;21146;-67
2021/12/31 02:54:50;;;;;;;25.97;20.48;;;;;;;6.00;45.81;99541.70;1727730;82;21088;-66
2021/12/31 02:57:18;;;;;;;25.50;19.43;;;;;;;6.00;45.80;99541.20;1719680;82;21061;-69
2021/12/31 02:59:45;;;;;;;26.30;20.32;;;;;;;6.00;45.81;99534.61;1722048;82;21038;-67
2021/12/31 03:02:12;;;;;;;24.87;19.48;;;;;;;6.01;45.81;99528.37;1723470;82;21008;-67
2021/12/31 03:04:39;;;;;;;27.17;19.37;;;;;;;6.00;45.81;99528.02;1733576;82;21157;-66
2021/12/31 03:07:07;;;;;;;26.42;20.35;;;;;;;6.01;45.83;99532.83;1730656;81;21048;-68
2021/12/31 03:09:37;;;;;;;25.15;19.37;;;;;;;6.01;45.83;99528.87;1731491;81;21019;-68
2021/12/31 03:12:04;;;;;;;24.37;19.55;;;;;;;6.02;45.81;99530.02;1735330;82;21005;-67
2021/12/31 03:14:32;;;;;;;25.23;19.62;;;;;;;6.03;45.84;99530.88;1731528;82;21028;-66
2021/12/31 03:17:00;;;;;;;25.08;18.87;;;;;;;6.03;45.83;99527.75;1728216;82;21133;-67
2021/12/31 03:19:27;;;;;;;24.87;19.42;;;;;;;6.03;45.86;99536.97;1726194;81;21551;-66
2021/12/31 03:21:54;;;;;;;24.02;18.25;;;;;;;6.03;45.84;99529.06;1734059;81;21041;-67
2021/12/31 03:24:20;;;;;;;26.40;19.32;;;;;;;6.03;45.84;99525.11;1740146;82;21123;-66
2021/12/31 03:26:48;;;;;;;26.20;20.25;;;;;;;6.04;45.86;99532.03;1741629;82;20993;-66
2021/12/31 03:29:14;;;;;;;23.85;18.67;;;;;;;6.03;45.87;99529.06;1739718;81;21090;-67
2021/12/31 03:31:41;;;;;;;26.87;20.85;;;;;;;6.04;45.89;99537.30;1745287;81;21060;-66
2021/12/31 03:34:07;;;;;;;24.60;18.48;;;;;;;6.04;45.88;99529.39;1732412;81;21481;-67
2021/12/31 03:36:34;;;;;;;24.00;19.05;;;;;;;6.05;45.89;99522.34;1715852;82;21105;-67
2021/12/31 03:39:00;;;;;;;24.27;19.60;;;;;;;6.05;45.90;99524.97;1714760;82;21577;-67
2021/12/31 03:41:27;;;;;;;25.52;18.42;;;;;;;6.05;45.92;99521.84;1710902;82;22525;-67
2021/12/31 03:43:53;;;;;;;24.37;19.20;;;;;;;6.06;45.90;99518.70;1707397;82;21046;-67
2021/12/31 03:46:20;;;;;;;23.10;18.55;;;;;;;6.06;45.94;99514.25;1730248;80;21105;-66
2021/12/31 03:48:46;;;;;;;25.62;19.32;;;;;;;6.07;45.92;99505.37;1735716;81;21144;-66
2021/12/31 03:51:12;;;;;;;24.43;19.55;;;;;;;6.07;45.93;99510.66;1740443;81;21100;-66
2021/12/31 03:53:39;;;;;;;23.07;18.62;;;;;;;6.07;45.93;99505.37;1732229;81;21477;-66
2021/12/31 03:56:05;;;;;;;25.30;19.12;;;;;;;6.08;45.94;99508.38;1745411;81;21049;-67
2021/12/31 03:58:32;;;;;;;25.20;19.67;;;;;;;6.09;45.94;99517.11;1727980;81;21072;-66
2021/12/31 04:00:58;;;;;;;24.45;19.52;;;;;;;6.07;45.95;99511.16;1739819;81;21583;-66
2021/12/31 04:03:24;;;;;;;24.80;19.45;;;;;;;6.08;45.98;99504.88;1743463;81;21029;-67
2021/12/31 04:05:53;;;;;;;26.73;19.75;;;;;;;6.08;45.99;99507.52;1727095;81;21045;-66
2021/12/31 04:08:20;;;;;;;24.75;18.48;;;;;;;6.08;46.00;99510.16;1727608;81;21159;-66
2021/12/31 04:10:47;;;;;;;24.05;18.25;;;;;;;6.08;46.01;99499.61;1714761;82;21077;-66
2021/12/31 04:13:14;;;;;;;24.52;19.80;;;;;;;6.09;46.02;99498.65;1709198;82;21074;-67
2021/12/31 04:15:40;;;;;;;24.63;19.10;;;;;;;6.08;46.01;99505.73;1733512;80;21013;-67
2021/12/31 04:18:08;;;;;;;24.82;19.42;;;;;;;6.09;46.04;99499.47;1752427;80;21185;-67
2021/12/31 04:20:41;;;;;;;24.55;18.92;;;;;;;6.09;46.05;99498.16;1740130;81;21488;-67
2021/12/31 04:23:26;;;;;;;25.52;19.48;;;;;;;6.10;46.04;99489.75;1736063;81;21020;-67
2021/12/31 04:25:42;;;;;;;26.73;19.90;;;;;;;6.10;46.04;99501.14;1731365;80;21592;-67
2021/12/31 04:28:09;;;;;;;26.42;19.90;;;;;;;6.10;46.07;99495.02;1746577;80;21119;-67
2021/12/31 04:30:36;;;;;;;27.33;20.03;;;;;;;6.11;46.07;99492.73;1752440;81;21147;-68
2021/12/31 04:33:02;;;;;;;26.57;19.95;;;;;;;6.12;46.07;99485.65;1751836;80;21653;-67
2021/12/31 04:35:29;;;;;;;27.13;20.43;;;;;;;6.12;46.08;99486.97;1721678;82;21029;-68
2021/12/31 04:37:55;;;;;;;27.07;20.10;;;;;;;6.12;46.08;99481.70;1747104;80;21050;-68
2021/12/31 04:40:22;;;;;;;25.70;20.35;;;;;;;6.13;46.10;99484.69;1715427;82;21080;-67
2021/12/31 04:42:50;;;;;;;26.33;20.62;;;;;;;6.13;46.11;99488.64;1708530;82;21104;-67
2021/12/31 04:45:17;;;;;;;23.75;19.32;;;;;;;6.13;46.13;99473.64;1722877;82;21608;-68
2021/12/31 04:47:43;;;;;;;25.02;19.42;;;;;;;6.13;46.13;99461.77;1720650;82;21436;-67
2021/12/31 04:50:10;;;;;;;25.68;19.87;;;;;;;6.14;46.15;99463.91;1729623;82;21677;-68
2021/12/31 04:52:37;;;;;;;24.40;20.10;;;;;;;6.14;46.14;99466.55;1746030;80;21046;-67
2021/12/31 04:55:05;;;;;;;24.70;19.70;;;;;;;6.13;46.17;99453.86;1728843;81;22165;-67
2021/12/31 04:57:32;;;;;;;25.45;20.23;;;;;;;6.14;46.14;99457.32;1738830;81;21025;-67
2021/12/31 04:59:59;;;;;;;23.00;18.45;;;;;;;6.14;46.18;99459.46;1734297;81;21480;-67
2021/12/31 05:02:26;;;;;;;25.50;19.37;;;;;;;6.16;46.20;99461.95;1721545;81;21136;-68
2021/12/31 05:04:52;;;;;;;26.37;20.52;;;;;;;6.16;46.20;99463.28;1676304;82;21160;-66
2021/12/31 05:07:20;;;;;;;25.82;20.35;;;;;;;6.16;46.19;99461.49;1675910;82;21070;-68
2021/12/31 05:09:46;;;;;;;26.82;20.50;;;;;;;6.16;46.23;99458.86;1675490;83;21065;-67
2021/12/31 05:12:19;;;;;;;26.12;20.43;;;;;;;6.17;46.21;99464.95;1686186;82;21588;-66
2021/12/31 05:14:42;;;;;;;26.42;19.75;;;;;;;6.17;46.24;99467.59;1682500;83;21563;-69
2021/12/31 05:17:09;;;;;;;27.48;19.95;;;;;;;6.17;46.25;99464.45;1683688;82;21045;-67
2021/12/31 05:19:36;;;;;;;25.97;20.10;;;;;;;6.18;46.26;99462.64;1686417;82;22328;-66
2021/12/31 05:22:03;;;;;;;26.17;19.55;;;;;;;6.18;46.26;99450.30;1688752;83;21073;-67
2021/12/31 05:24:30;;;;;;;25.17;19.85;;;;;;;6.18;46.26;99435.80;1673356;82;22053;-66
2021/12/31 05:26:57;;;;;;;24.82;19.70;;;;;;;6.19;46.28;99448.48;1679759;82;21085;-66
2021/12/31 05:29:23;;;;;;;24.02;19.00;;;;;;;6.19;46.29;99444.03;1685931;82;21097;-66
2021/12/31 05:31:51;;;;;;;26.48;19.60;;;;;;;6.15;46.30;99443.99;1691404;83;21304;-66
2021/12/31 05:34:17;;;;;;;24.02;19.50;;;;;;;6.19;46.31;99448.48;1675398;82;21097;-66
2021/12/31 05:36:44;;;;;;;23.57;19.05;;;;;;;6.20;46.31;99445.70;1690673;82;21398;-66
2021/12/31 05:39:10;;;;;;;26.97;21.02;;;;;;;6.20;46.31;99443.07;1679427;82;21519;-67
2021/12/31 05:41:39;;;;;;;27.40;20.55;;;;;;;6.21;46.35;99446.53;1687671;83;21076;-66
2021/12/31 05:44:06;;;;;;;26.85;20.40;;;;;;;6.21;46.36;99446.03;1730987;81;21129;-66
2021/12/31 05:46:33;;;;;;;25.68;19.57;;;;;;;6.21;46.37;99447.35;1737253;82;21536;-66
2021/12/31 05:48:59;;;;;;;26.50;20.25;;;;;;;6.21;46.37;99444.72;1721186;80;21489;-68
2021/12/31 05:51:27;;;;;;;25.37;19.45;;;;;;;6.22;46.39;99443.75;1726656;80;21004;-67
2021/12/31 05:53:55;;;;;;;25.80;19.20;;;;;;;6.22;46.39;99443.75;1748949;82;21037;-67
2021/12/31 05:56:21;;;;;;;27.05;20.00;;;;;;;6.22;46.38;99445.07;1729265;82;21643;-65
2021/12/31 05:58:47;;;;;;;25.37;19.87;;;;;;;6.23;46.41;99445.40;1731846;80;20999;-67
2021/12/31 06:01:14;;;;;;;24.27;19.23;;;;;;;6.23;46.41;99451.17;1730402;82;21624;-67
2021/12/31 06:03:40;;;;;;;25.12;19.12;;;;;;;6.23;46.41;99450.67;1742060;80;21045;-68
2021/12/31 06:06:07;;;;;;;24.25;19.90;;;;;;;6.24;46.43;99455.48;1761297;79;21031;-67
2021/12/31 06:08:33;;;;;;;28.20;20.05;;;;;;;6.24;46.45;99458.94;1763314;80;21298;-67
2021/12/31 06:10:59;;;;;;;25.35;18.62;;;;;;;6.24;46.44;99456.80;1765694;80;21039;-67
2021/12/31 06:13:26;;;;;;;23.80;17.92;;;;;;;6.24;46.44;99449.71;1765363;80;21015;-67
2021/12/31 06:15:57;;;;;;;24.43;19.62;;;;;;;6.25;46.45;99453.99;1774869;79;21077;-67
2021/12/31 06:18:21;;;;;;;23.15;18.90;;;;;;;6.26;46.47;99456.16;1772636;79;21037;-68
2021/12/31 06:20:48;;;;;;;26.60;19.42;;;;;;;6.28;46.48;99456.84;1775182;80;21510;-67
2021/12/31 06:23:16;;;;;;;23.65;18.90;;;;;;;6.28;46.48;99456.34;1777138;79;21066;-67
2021/12/31 06:25:43;;;;;;;24.52;19.37;;;;;;;6.28;46.48;99460.30;1774762;79;20986;-66
2021/12/31 06:28:10;;;;;;;24.63;19.25;;;;;;;6.28;46.49;99458.16;1769278;79;21030;-67
2021/12/31 06:30:37;;;;;;;25.82;19.37;;;;;;;6.29;46.49;99464.59;1758418;80;21105;-67
2021/12/31 06:33:04;;;;;;;25.20;19.00;;;;;;;6.29;46.53;99462.45;1750048;80;21106;-67
2021/12/31 06:35:31;;;;;;;24.60;18.70;;;;;;;6.31;46.53;99467.08;1758155;79;21061;-67
2021/12/31 06:37:58;;;;;;;26.07;19.62;;;;;;;6.30;46.53;99471.54;1750142;80;21022;-67
2021/12/31 06:40:25;;;;;;;22.48;18.10;;;;;;;6.31;46.54;99468.41;1753475;79;21080;-68
2021/12/31 06:42:52;;;;;;;25.25;19.42;;;;;;;6.32;46.56;99472.72;1761789;80;21505;-67
2021/12/31 06:45:19;;;;;;;25.70;19.30;;;;;;;6.31;46.56;99465.77;1770911;80;21129;-66
2021/12/31 06:47:45;;;;;;;25.57;19.67;;;;;;;6.33;46.59;99469.58;1764626;79;20991;-66
2021/12/31 06:50:11;;;;;;;26.80;19.95;;;;;;;6.33;46.59;99459.85;1762252;80;21447;-67
2021/12/31 06:52:39;;;;;;;26.15;20.00;;;;;;;6.33;46.59;99462.48;1763402;80;20989;-67
2021/12/31 06:55:07;;;;;;;26.33;19.87;;;;;;;6.33;46.60;99459.85;1756371;80;21061;-66
2021/12/31 06:57:35;;;;;;;25.17;19.67;;;;;;;6.34;46.61;99460.20;1760040;79;21204;-67
2021/12/31 07:00:07;;;;;;;24.90;18.85;;;;;;;6.35;46.61;99460.53;1767532;80;21042;-67
2021/12/31 07:02:35;;;;;;;27.50;19.85;;;;;;;6.36;46.63;99464.84;1750446;80;21082;-67
2021/12/31 07:05:02;;;;;;;25.00;18.80;;;;;;;6.36;46.63;99471.44;1750410;80;22040;-67
2021/12/31 07:07:28;;;;;;;25.35;19.52;;;;;;;6.37;46.65;99460.39;1761003;79;21101;-67
2021/12/31 07:09:55;;;;;;;24.95;18.95;;;;;;;6.38;46.67;99469.98;1758931;80;21140;-69
2021/12/31 07:12:21;;;;;;;27.52;20.60;;;;;;;6.37;46.68;99470.45;1763239;79;21008;-66
2021/12/31 07:14:49;;;;;;;25.23;18.82;;;;;;;6.38;46.70;99468.16;1752636;79;21003;-67
2021/12/31 07:17:16;;;;;;;26.30;19.80;;;;;;;6.39;46.71;99470.30;1753047;80;21490;-66
2021/12/31 07:19:43;;;;;;;25.97;20.08;;;;;;;6.39;46.72;99466.34;1764861;80;21502;-68
2021/12/31 07:22:10;;;;;;;26.37;19.98;;;;;;;6.39;46.74;99464.53;1752550;80;21055;-67
2021/12/31 07:24:37;;;;;;;24.43;19.10;;;;;;;6.41;46.75;99465.70;1764379;79;21046;-67
2021/12/31 07:27:04;;;;;;;25.90;18.77;;;;;;;6.41;46.77;99464.39;1763663;79;21010;-67
2021/12/31 07:29:30;;;;;;;26.73;20.23;;;;;;;6.41;46.77;99468.34;1767141;79;21030;-68
2021/12/31 07:31:56;;;;;;;24.37;18.67;;;;;;;6.42;46.78;99468.70;1754524;80;21013;-67
2021/12/31 07:34:23;;;;;;;25.32;19.75;;;;;;;6.43;46.78;99468.56;1760045;79;21130;-67
2021/12/31 07:36:49;;;;;;;24.90;18.57;;;;;;;6.43;46.78;99465.92;1758446;80;21010;-68
2021/12/31 07:39:15;;;;;;;25.43;19.42;;;;;;;6.44;46.81;99471.53;1761064;80;21003;-67
2021/12/31 07:41:42;;;;;;;23.35;17.67;;;;;;;6.45;46.83;99465.28;1757888;79;21042;-69
2021/12/31 07:44:10;;;;;;;26.20;18.92;;;;;;;6.46;46.82;99471.38;1760445;80;21526;-68
2021/12/31 07:46:37;;;;;;;24.57;19.48;;;;;;;6.46;46.83;99470.89;1766824;79;21148;-67
2021/12/31 07:49:03;;;;;;;24.40;19.95;;;;;;;6.47;46.83;99469.06;1769545;79;21482;-67
2021/12/31 07:51:30;;;;;;;26.23;19.45;;;;;;;6.48;46.85;99464.97;1763815;79;21038;-67
2021/12/31 07:53:57;;;;;;;25.35;19.00;;;;;;;6.49;46.85;99458.73;1760578;80;21093;-67
2021/12/31 07:56:23;;;;;;;27.85;20.23;;;;;;;6.48;46.88;99451.77;1749523;80;21011;-67
2021/12/31 07:58:49;;;;;;;24.60;18.45;;;;;;;6.50;46.88;99447.67;1757866;80;21138;-69
2021/12/31 08:01:17;;;;;;;26.82;20.10;;;;;;;6.50;46.89;99459.55;1761358;79;21669;-68
2021/12/31 08:03:43;;;;;;;27.22;20.88;;;;;;;6.52;46.90;99446.21;1769454;79;21061;-68
2021/12/31 08:06:10;;;;;;;25.92;19.00;;;;;;;6.53;46.91;99452.67;1762395;80;21048;-68
2021/12/31 08:08:36;;;;;;;26.30;19.32;;;;;;;6.53;46.90;99453.13;1764076;80;21041;-68
2021/12/31 08:11:03;;;;;;;26.05;20.08;;;;;;;6.55;46.92;99463.91;1764587;79;21873;-68
2021/12/31 08:13:30;;;;;;;26.48;19.23;;;;;;;6.55;46.93;99462.58;1772437;80;21017;-67
2021/12/31 08:18:17;;;;;;;26.48;18.40;;;;;;;6.60;46.97;99458.16;1852054;76;28466;-67
2021/12/31 08:20:43;;;;;;;27.30;20.20;;;;;;;6.57;46.96;99455.84;1813206;77;20977;-67
2021/12/31 08:23:10;;;;;;;26.87;20.10;;;;;;;6.58;46.95;99460.13;1801685;77;21121;-66
2021/12/31 08:25:37;;;;;;;26.97;19.62;;;;;;;6.59;47.00;99444.64;1795327;78;21490;-67
2021/12/31 08:28:06;;;;;;;26.82;19.05;;;;;;;6.60;47.01;99443.64;1798398;77;20981;-69
2021/12/31 08:30:32;;;;;;;26.57;19.80;;;;;;;6.60;47.01;99446.28;1822012;78;21513;-67
2021/12/31 08:32:59;;;;;;;24.85;19.60;;;;;;;6.61;47.01;99442.68;1819511;78;20968;-67
2021/12/31 08:35:26;;;;;;;26.23;19.23;;;;;;;6.62;47.02;99438.55;1815828;77;21896;-69
2021/12/31 08:37:52;;;;;;;25.45;19.98;;;;;;;6.64;47.02;99441.05;1808446;78;21005;-67
2021/12/31 08:40:20;;;;;;;27.82;19.70;;;;;;;6.65;47.05;99448.00;1800374;78;21081;-67
2021/12/31 08:42:48;;;;;;;27.10;19.57;;;;;;;6.65;47.05;99446.18;1795342;78;21064;-67
2021/12/31 08:45:14;;;;;;;26.45;19.70;;;;;;;6.67;47.07;99444.72;1803508;77;21034;-67
2021/12/31 08:47:42;;;;;;;26.05;19.80;;;;;;;6.68;47.06;99450.31;1799232;78;21052;-68
2021/12/31 08:50:09;;;;;;;25.82;20.00;;;;;;;6.69;47.08;99454.13;1824212;77;21033;-68
2021/12/31 08:52:36;;;;;;;26.45;20.72;;;;;;;6.69;47.08;99455.45;1798754;78;21008;-68
2021/12/31 08:55:05;;;;;;;26.75;19.85;;;;;;;6.72;47.10;99454.81;1821614;77;21493;-67
2021/12/31 08:57:33;;;;;;;25.02;19.60;;;;;;;6.73;47.09;99448.06;1808907;77;21584;-68
2021/12/31 09:00:00;;;;;;;25.12;19.67;;;;;;;6.73;47.09;99445.42;1802475;78;22046;-69
2021/12/31 09:02:27;;;;;;;24.72;18.77;;;;;;;6.75;47.09;99452.70;1809754;77;21025;-69
2021/12/31 09:04:53;;;;;;;28.25;20.15;;;;;;;6.75;47.10;99444.78;1804159;77;20982;-68
2021/12/31 09:07:19;;;;;;;29.45;20.65;;;;;;;6.76;47.12;99444.28;1814182;78;21029;-67
2021/12/31 09:09:46;;;;;;;26.60;18.75;;;;;;;6.77;47.14;99444.14;1806666;78;21052;-66
2021/12/31 09:12:12;;;;;;;28.25;20.45;;;;;;;6.78;47.14;99438.36;1810283;77;21128;-68
2021/12/31 09:14:40;;;;;;;27.10;20.02;;;;;;;6.79;47.30;99435.58;1794601;77;21029;-67
2021/12/31 09:17:07;;;;;;;28.87;20.05;;;;;;;6.80;47.48;99441.21;1810389;77;20990;-68
2021/12/31 09:19:34;;;;;;;25.82;19.87;;;;;;;6.81;47.51;99430.97;1785229;79;21045;-68
2021/12/31 09:22:01;;;;;;;26.90;20.08;;;;;;;6.82;47.53;99435.29;1753767;79;21091;-67
2021/12/31 09:24:28;;;;;;;32.25;21.37;;;;;;;6.83;47.54;99436.11;1752683;79;21109;-68
2021/12/31 09:26:54;;;;;;;26.35;19.82;;;;;;;6.84;47.54;99431.19;1754627;79;21082;-69
2021/12/31 09:29:23;;;;;;;28.75;19.70;;;;;;;6.85;47.54;99434.97;1734284;81;21058;-69
2021/12/31 09:31:50;;;;;;;27.07;19.12;;;;;;;6.85;47.55;99433.64;1742134;79;21051;-67
2021/12/31 09:34:17;;;;;;;26.95;20.10;;;;;;;6.86;47.54;99435.81;1758716;80;21099;-66
2021/12/31 09:36:43;;;;;;;26.45;19.42;;;;;;;6.87;47.57;99433.50;1748936;79;21062;-66
2021/12/31 09:39:09;;;;;;;26.12;20.02;;;;;;;6.88;47.56;99426.75;1738962;79;21570;-66
2021/12/31 09:41:36;;;;;;;26.25;19.57;;;;;;;6.88;47.53;99420.16;1752208;81;21071;-66
2021/12/31 09:44:05;;;;;;;28.73;20.35;;;;;;;6.89;47.55;99417.87;1743483;80;21034;-65
2021/12/31 09:46:32;;;;;;;27.67;20.05;;;;;;;6.91;47.56;99415.55;1737716;80;22109;-64
2021/12/31 09:48:58;;;;;;;28.30;17.62;;;;;;;6.92;47.55;99423.82;1704913;79;21173;-70
2021/12/31 09:51:25;;;;;;;25.40;17.20;;;;;;;6.96;54.88;99425.17;1739206;80;21034;-73
2021/12/31 09:53:53;;;;;;;27.90;17.00;;;;;;;7.07;57.80;99426.26;1743292;79;21085;-69
2021/12/31 09:56:20;;;;;;;25.05;17.42;;;;;;;7.17;58.52;99417.74;1755047;79;21503;-69
2021/12/31 09:58:46;;;;;;;29.25;18.02;;;;;;;7.24;58.69;99408.69;1743574;80;21114;-69
2021/12/31 10:01:14;;;;;;;26.70;17.40;;;;;;;7.31;58.33;99414.20;1758334;81;21156;-70
2021/12/31 10:03:41;;;;;;;24.05;16.87;;;;;;;7.35;57.89;99415.05;1741602;81;21077;-68
2021/12/31 10:06:12;;;;;;;26.40;17.40;;;;;;;7.37;57.57;99410.43;1760491;79;21064;-69
2021/12/31 10:08:44;;;;;;;26.27;16.73;;;;;;;7.39;57.18;99408.97;1735457;79;21073;-72
2021/12/31 10:11:21;;;;;;;29.05;17.98;;;;;;;7.40;56.79;99404.03;1754286;80;21452;-69
2021/12/31 10:13:59;;;;;;;23.20;16.25;;;;;;;7.41;56.42;99409.63;1748280;81;21145;-69
2021/12/31 10:16:33;;;;;;;24.80;16.65;;;;;;;7.40;56.01;99407.49;1744768;80;21133;-66
2021/12/31 10:19:20;;;;;;;23.75;16.27;;;;;;;7.40;55.66;99396.92;1757022;79;21070;-67
2021/12/31 10:21:50;;;;;;;25.15;18.12;;;;;;;7.40;55.37;99393.45;1741026;80;21066;-69
2021/12/31 10:24:36;;;;;;;24.43;16.65;;;;;;;7.40;55.06;99398.24;1764422;80;21583;-67
2021/12/31 10:27:19;;;;;;;26.12;16.82;;;;;;;7.39;54.76;99386.00;1748560;79;21226;-68
2021/12/31 10:29:57;;;;;;;24.35;16.97;;;;;;;7.38;54.48;99384.36;1742262;80;21082;-68
2021/12/31 10:32:36;;;;;;;25.00;16.27;;;;;;;7.38;54.24;99381.72;1751926;79;21047;-67
2021/12/31 10:35:20;;;;;;;25.90;17.07;;;;;;;7.38;54.00;99379.07;1752199;80;21597;-69
2021/12/31 10:37:58;;;;;;;28.65;17.35;;;;;;;7.39;53.76;99380.71;1746905;79;21062;-67
2021/12/31 10:40:36;;;;;;;23.22;16.73;;;;;;;7.39;53.54;99382.03;1745019;80;21092;-68
2021/12/31 10:43:18;;;;;;;22.42;16.27;;;;;;;7.39;53.34;99379.39;1744000;80;21035;-68
2021/12/31 10:46:09;;;;;;;24.20;16.60;;;;;;;7.39;53.13;99380.71;1752338;80;21475;-70
2021/12/31 10:48:40;;;;;;;23.27;16.15;;;;;;;7.39;52.95;99381.22;1757230;80;21073;-68
2021/12/31 10:51:09;;;;;;;24.02;17.87;;;;;;;7.40;52.77;99385.53;1757524;79;21086;-69
2021/12/31 10:53:37;;;;;;;26.23;18.15;;;;;;;7.40;52.61;99387.67;1743626;80;21862;-69
2021/12/31 10:56:07;;;;;;;24.92;16.65;;;;;;;7.41;52.48;99377.92;1752422;79;20987;-68
2021/12/31 10:58:34;;;;;;;23.75;16.77;;;;;;;7.42;52.35;99388.34;1759599;79;21067;-69
2021/12/31 11:01:04;;;;;;;27.82;18.40;;;;;;;7.42;52.19;99383.56;1753296;79;21086;-68
2021/12/31 11:03:32;;;;;;;26.75;18.57;;;;;;;7.44;52.07;99389.02;1734600;81;21101;-68
2021/12/31 11:05:58;;;;;;;25.12;17.48;;;;;;;7.45;51.94;99383.23;1736128;81;21215;-69
2021/12/31 11:08:24;;;;;;;24.50;17.50;;;;;;;7.46;51.82;99376.97;1749654;79;21684;-69
2021/12/31 11:10:51;;;;;;;26.85;17.70;;;;;;;7.47;51.70;99368.89;1742599;79;21034;-68
2021/12/31 11:13:21;;;;;;;22.52;16.23;;;;;;;7.49;51.61;99370.03;1770751;79;21565;-69
2021/12/31 11:15:53;;;;;;;24.43;16.82;;;;;;;7.50;51.51;99365.59;1740815;79;21011;-69
2021/12/31 11:18:23;;;;;;;22.37;16.75;;;;;;;7.50;51.43;99365.59;1733961;81;21633;-68
2021/12/31 11:20:51;;;;;;;25.43;16.77;;;;;;;7.51;51.32;99356.66;1744978;80;21369;-70
2021/12/31 11:23:26;;;;;;;25.72;15.68;;;;;;;7.52;51.23;99351.72;1750392;79;21081;-68
2021/12/31 11:26:05;;;;;;;25.48;16.80;;;;;;;7.54;51.13;99351.07;1760480;81;21023;-68
2021/12/31 11:28:38;;;;;;;21.87;16.55;;;;;;;7.55;51.07;99347.42;1758425;79;21070;-68
2021/12/31 11:31:21;;;;;;;26.20;16.17;;;;;;;7.56;50.98;99349.09;1752624;80;22160;-68
2021/12/31 11:34:08;;;;;;;23.40;15.88;;;;;;;7.56;50.91;99344.63;1741662;81;21049;-67
2021/12/31 11:36:51;;;;;;;22.02;15.90;;;;;;;7.57;50.84;99331.77;1734775;81;21276;-68